Terminal Aerodrome Forecast
Issued by NWS

Home | Current Version | Previous Version | Text Only | Print | Product List | Glossary On
Versions: 1 2 3 4 5 6 7 8 9 10 11 12 13 14 15 16 17 18
000
FTUS46 KMFR 011729
TAFOTH
TAF
KOTH 011729Z 0118/0218 02007KT P6SM SKC
     FM012200 35012G16KT P6SM SCT200
     FM020300 36010KT P6SM SCT015 BKN120
     FM020600 36008KT P6SM BKN020 BKN100
     FM021200 01006KT P6SM -RA BKN020 OVC035=

USA.gov is the U.S. government's official web portal to all federal, state and local government web resources and services.